Time;durP1;ratioP1;P1;durP2;ratioP2;P2;SDS_P1;SDS_P2;PMS_P1;PMS_P2;Temp;Humidity;BMP_temperature;BMP_pressure;BME280_temperature;BME280_humidity;BME280_pressure;Samples;Min_cycle;Max_cycle;Signal;HPM_P1;HPM_P2
2022/03/19 00:04:20;;;;;;;6.05;2.40;;;;;;;0.79;52.10;101240.16;6310608;22;20487;-80
2022/03/19 00:06:47;;;;;;;0.43;0.43;;;;;;;0.78;51.64;101243.78;6281887;22;20007;-80
2022/03/19 00:09:13;;;;;;;1.45;1.17;;;;;;;0.70;51.89;101247.19;6314201;22;20010;-81
2022/03/19 00:25:05;;;;;;;0.10;0.10;;;;;;;0.34;52.57;101228.06;6304246;22;20022;-82
2022/03/19 00:27:35;;;;;;;0.00;0.00;;;;;;;0.37;52.84;101227.75;6300868;22;20022;-83
2022/03/19 00:30:13;;;;;;;0.35;0.35;;;;;;;0.30;52.75;101230.97;6322438;22;19991;-82
2022/03/19 00:32:40;;;;;;;0.73;0.73;;;;;;;0.28;52.78;101226.84;6290144;22;20007;-81
2022/03/19 00:35:12;;;;;;;0.00;0.00;;;;;;;0.28;52.87;101234.75;6288435;22;19999;-81
2022/03/19 00:37:49;;;;;;;0.00;0.00;;;;;;;0.33;52.89;101216.72;6296206;22;19999;-80
2022/03/19 00:40:16;;;;;;;0.75;0.75;;;;;;;0.31;52.74;101219.47;6287436;22;20336;-82
2022/03/19 00:42:48;;;;;;;0.00;0.00;;;;;;;0.29;52.71;101218.81;6286357;22;20082;-82
2022/03/19 01:08:28;;;;;;;0.00;0.00;;;;;;;0.60;52.40;101207.81;6319451;22;20026;31
2022/03/19 01:10:53;;;;;;;0.65;0.65;;;;;;;0.63;52.48;101207.50;6146447;22;20149;-79
2022/03/19 01:13:19;;;;;;;0.00;0.00;;;;;;;0.63;52.50;101207.50;6144546;22;20028;-78
2022/03/19 01:15:44;;;;;;;0.00;0.00;;;;;;;0.66;52.14;101209.00;6144949;22;20002;-80
2022/03/19 01:18:34;;;;;;;0.00;0.00;;;;;;;0.77;52.29;101211.34;6146449;22;20015;-79
2022/03/19 01:21:55;;;;;;;0.28;0.28;;;;;;;0.88;52.71;101212.88;6148897;22;19996;-81
2022/03/19 01:24:36;;;;;;;0.00;0.00;;;;;;;0.99;52.93;101211.78;6274593;22;20006;-79
2022/03/19 01:54:45;;;;;;;0.00;0.00;;;;;;;0.80;50.98;101207.56;6310318;22;20022;-80
2022/03/19 01:57:18;;;;;;;0.00;0.00;;;;;;;0.78;51.56;101202.47;6307791;22;20007;-80
2022/03/19 01:59:47;;;;;;;0.00;0.00;;;;;;;0.78;52.04;101206.88;6307851;22;19999;-79
2022/03/19 02:14:50;;;;;;;0.00;0.00;;;;;;;0.82;51.08;101210.03;6304069;22;20098;-77
2022/03/19 02:17:15;;;;;;;0.00;0.00;;;;;;;0.85;51.70;101202.66;6279537;22;20007;-79
2022/03/19 02:19:52;;;;;;;0.00;0.00;;;;;;;0.90;52.15;101205.63;6281798;22;20030;-80
2022/03/19 02:22:20;;;;;;;0.00;0.00;;;;;;;0.95;52.13;101211.25;6291578;22;19985;-82
2022/03/19 02:28:10;;;;;;;0.00;0.00;;;;;;;1.07;52.21;101205.69;6323915;22;20006;-82
2022/03/19 02:31:04;;;;;;;0.00;0.00;;;;;;;1.14;52.34;101211.16;6281233;22;20072;-80
2022/03/19 02:33:30;;;;;;;0.00;0.00;;;;;;;1.11;52.08;101197.31;6311034;22;20105;-78
2022/03/19 02:35:55;;;;;;;0.00;0.00;;;;;;;1.19;52.25;101207.03;6308678;22;20116;-78
2022/03/19 02:38:21;;;;;;;0.00;0.00;;;;;;;1.20;52.69;101208.69;6282746;22;20484;-78
2022/03/19 02:40:46;;;;;;;0.00;0.00;;;;;;;1.23;52.03;101207.53;6308306;22;20013;-79
2022/03/19 02:43:11;;;;;;;0.00;0.00;;;;;;;1.27;52.37;101204.44;6307868;22;20000;-79
2022/03/19 02:45:37;;;;;;;0.00;0.00;;;;;;;1.29;51.91;101204.25;6282809;22;20006;-78
2022/03/19 02:49:00;;;;;;;0.00;0.00;;;;;;;1.30;52.31;101195.38;6308929;22;20444;-81
2022/03/19 02:56:58;;;;;;;0.00;0.00;;;;;;;1.26;52.87;101197.50;6307317;22;21067;-79
2022/03/19 02:59:26;;;;;;;0.00;0.00;;;;;;;1.24;52.85;101204.75;6281996;22;20007;-81
2022/03/19 03:02:10;;;;;;;0.00;0.00;;;;;;;1.25;52.80;101200.31;6280929;22;19999;-81
2022/03/19 03:04:36;;;;;;;0.00;0.00;;;;;;;1.21;52.94;101206.88;6282010;22;20011;-79
2022/03/19 03:07:03;;;;;;;0.00;0.00;;;;;;;1.19;52.78;101200.97;6280409;22;20422;-80
2022/03/19 03:13:03;;;;;;;0.00;0.00;;;;;;;1.02;53.04;101182.44;6297065;22;20030;-82
2022/03/19 03:18:52;;;;;;;0.00;0.00;;;;;;;1.05;52.88;101203.22;6317744;22;20014;-81
2022/03/19 03:21:18;;;;;;;0.00;0.00;;;;;;;1.00;53.22;101200.25;6291532;22;20018;-80
2022/03/19 03:23:43;;;;;;;0.00;0.00;;;;;;;0.98;53.16;101202.22;6286735;22;19999;-79
2022/03/19 03:26:09;;;;;;;0.00;0.00;;;;;;;0.94;53.26;101196.44;6281955;22;20007;-79
2022/03/19 03:28:34;;;;;;;0.00;0.00;;;;;;;0.97;53.54;101195.28;6281751;22;19999;-79
2022/03/19 03:31:00;;;;;;;0.00;0.00;;;;;;;0.98;53.42;101196.09;6281690;22;20003;-80
2022/03/19 03:34:24;;;;;;;0.00;0.00;;;;;;;0.97;53.40;101192.66;6260511;22;20440;-81
2022/03/19 03:37:00;;;;;;;0.00;0.00;;;;;;;0.97;53.37;101195.28;6309299;22;19995;-80
2022/03/19 03:52:07;;;;;;;0.00;0.00;;;;;;;0.81;53.16;101193.41;6199729;22;20225;-77
2022/03/19 03:54:33;;;;;;;0.00;0.00;;;;;;;0.79;53.13;101195.38;6286914;22;20031;-78
2022/03/19 04:05:44;;;;;;;0.00;0.00;;;;;;;0.67;54.16;101196.66;6308942;22;20015;-80
2022/03/19 04:08:09;;;;;;;0.00;0.00;;;;;;;0.73;53.81;101199.50;6306467;22;20015;-81
2022/03/19 04:10:35;;;;;;;0.00;0.00;;;;;;;0.72;54.15;101199.63;6281632;22;20014;-80
2022/03/19 04:13:01;;;;;;;0.00;0.00;;;;;;;0.74;54.22;101201.13;6254804;22;20339;-78
2022/03/19 04:15:26;;;;;;;0.00;0.00;;;;;;;0.72;54.29;101197.84;6280911;22;20404;-79
2022/03/19 04:17:52;;;;;;;0.00;0.00;;;;;;;0.70;54.54;101199.78;6279344;22;19999;-80
2022/03/19 04:28:30;;;;;;;0.00;0.00;;;;;;;0.72;54.13;101197.84;6280166;22;20011;-82
2022/03/19 04:34:41;;;;;;;0.00;0.00;;;;;;;0.90;54.64;101195.09;6198687;23;20529;-81
2022/03/19 04:37:22;;;;;;;0.00;0.00;;;;;;;0.99;54.57;101200.38;6164383;23;20052;-81
2022/03/19 04:39:48;;;;;;;0.00;0.00;;;;;;;1.07;54.88;101195.16;6284688;22;20341;-81
2022/03/19 04:42:45;;;;;;;0.00;0.00;;;;;;;1.19;55.04;101196.50;6260058;22;20049;-80
2022/03/19 04:45:15;;;;;;;0.00;0.00;;;;;;;1.35;54.53;101200.97;6268375;22;20113;-78
2022/03/19 04:47:50;;;;;;;0.00;0.00;;;;;;;1.59;54.19;101210.75;6280319;22;20431;-81
2022/03/19 04:53:23;;;;;;;0.00;0.00;;;;;;;2.07;52.93;101208.28;6288341;22;20018;-81
2022/03/19 05:06:03;;;;;;;0.00;0.00;;;;;;;2.83;48.47;101212.41;6307801;22;20030;31
2022/03/19 05:19:17;;;;;;;0.00;0.00;;;;;;;3.93;47.62;101211.41;6222609;23;20095;-82
2022/03/19 05:28:04;;;;;;;0.00;0.00;;;;;;;4.89;46.18;101217.91;6233719;22;20045;-82
2022/03/19 05:30:31;;;;;;;0.00;0.00;;;;;;;5.14;46.12;101215.75;6298504;22;20019;-81
2022/03/19 05:32:57;;;;;;;0.00;0.00;;;;;;;5.28;44.98;101212.25;6285181;22;20066;-80
2022/03/19 05:35:27;;;;;;;0.00;0.00;;;;;;;5.44;44.55;101219.16;6282917;22;20070;-81
2022/03/19 05:37:52;;;;;;;0.00;0.00;;;;;;;5.65;44.64;101212.22;6256444;22;20005;-80
2022/03/19 05:40:19;;;;;;;0.00;0.00;;;;;;;5.86;43.95;101218.50;6285478;22;20526;-80
2022/03/19 05:42:45;;;;;;;0.00;0.00;;;;;;;6.00;43.64;101214.19;6231450;22;20005;-79
2022/03/19 05:45:10;;;;;;;0.00;0.00;;;;;;;6.15;43.19;101227.38;6282797;22;20004;-79
2022/03/19 05:47:39;;;;;;;0.08;0.08;;;;;;;6.19;41.94;101223.28;6282867;22;20012;-79
2022/03/19 05:50:05;;;;;;;;;;;;;;;6.33;42.29;101222.38;6283414;22;20016;-79
2022/03/19 05:52:30;;;;;;;0.32;0.32;;;;;;;6.34;41.56;101221.38;6282815;22;19907;-79
2022/03/19 05:58:17;;;;;;;0.05;0.05;;;;;;;6.60;41.79;101225.22;6178950;23;20023;-80
2022/03/19 06:00:43;;;;;;;0.00;0.00;;;;;;;6.70;41.11;101219.53;6284977;22;20434;-78
2022/03/19 06:03:08;;;;;;;0.00;0.00;;;;;;;6.83;41.03;101214.28;6281683;22;20046;-78
2022/03/19 06:05:34;;;;;;;0.00;0.00;;;;;;;6.98;41.32;101224.81;6281864;22;20342;-78
2022/03/19 06:07:59;;;;;;;0.00;0.00;;;;;;;7.01;40.36;101218.28;6178558;22;20008;-78
2022/03/19 06:10:25;;;;;;;0.00;0.00;;;;;;;7.01;39.54;101213.75;6282186;22;20001;-78
2022/03/19 06:12:50;;;;;;;0.00;0.00;;;;;;;6.98;39.33;101214.16;6285628;22;20380;-81
2022/03/19 06:15:17;;;;;;;0.30;0.30;;;;;;;6.92;37.99;101214.97;6283997;22;20084;-81
2022/03/19 06:17:43;;;;;;;0.00;0.00;;;;;;;6.98;36.98;101224.81;6257473;22;20338;-79
2022/03/19 06:20:09;;;;;;;0.00;0.00;;;;;;;7.00;36.57;101219.28;6282353;22;20072;-79
2022/03/19 06:22:40;;;;;;;0.00;0.00;;;;;;;6.80;34.26;101224.50;6282591;22;20001;-81
2022/03/19 06:25:24;;;;;;;0.10;0.10;;;;;;;6.67;35.71;101228.72;6287574;22;20026;-82
2022/03/19 06:27:51;;;;;;;0.75;0.75;;;;;;;6.45;35.09;101235.97;6301560;22;20015;-80
2022/03/19 06:30:18;;;;;;;0.00;0.00;;;;;;;6.21;35.95;101235.41;6305316;22;20015;-80
2022/03/19 06:33:31;;;;;;;0.00;0.00;;;;;;;6.10;35.69;101230.59;6287796;22;20019;-82
2022/03/19 06:42:09;;;;;;;0.00;0.00;;;;;;;5.32;37.71;101231.25;6308311;22;20008;-78
2022/03/19 06:44:38;;;;;;;0.00;0.00;;;;;;;5.31;38.45;101237.59;6278712;22;20011;-82
2022/03/19 06:47:07;;;;;;;0.00;0.00;;;;;;;5.10;37.50;101228.56;6284848;22;20090;-81
2022/03/19 06:52:56;;;;;;;0.57;0.57;;;;;;;4.75;40.28;101232.81;6308902;22;20019;-81
2022/03/19 06:55:21;;;;;;;0.00;0.00;;;;;;;4.76;38.67;101223.84;6316014;22;20012;-78
2022/03/19 06:57:47;;;;;;;0.00;0.00;;;;;;;4.62;38.22;101223.66;6281672;22;19994;-78
2022/03/19 07:00:13;;;;;;;0.00;0.00;;;;;;;4.53;37.78;101237.16;6289565;22;20033;-81
2022/03/19 07:02:53;;;;;;;0.30;0.30;;;;;;;4.36;38.50;101229.41;6287762;22;20037;-80
2022/03/19 07:08:24;;;;;;;0.00;0.00;;;;;;;4.14;36.98;101231.09;6321840;22;20019;-82
2022/03/19 07:10:50;;;;;;;0.10;0.10;;;;;;;3.98;37.91;101235.53;6288046;22;20071;-82
2022/03/19 07:13:16;;;;;;;0.00;0.00;;;;;;;3.92;37.92;101236.25;6281662;22;20456;-77
2022/03/19 07:15:44;;;;;;;0.00;0.00;;;;;;;3.90;37.86;101237.44;6303260;22;19998;-78
2022/03/19 07:18:10;;;;;;;1.63;1.55;;;;;;;3.84;37.76;101249.53;6284303;22;20002;-77
2022/03/19 07:20:36;;;;;;;0.08;0.08;;;;;;;3.63;37.30;101244.91;6281844;22;19991;-76
2022/03/19 07:23:05;;;;;;;1.17;1.15;;;;;;;3.50;37.71;101248.09;6279407;22;19999;-79
2022/03/19 07:25:43;;;;;;;2.63;2.25;;;;;;;3.39;38.66;101237.94;6307443;22;20001;-79
2022/03/19 07:28:17;;;;;;;0.15;0.15;;;;;;;3.30;39.17;101240.59;6306916;22;20003;-80
2022/03/19 07:30:43;;;;;;;0.43;0.43;;;;;;;3.26;39.08;101249.06;6279340;22;20336;-77
2022/03/19 07:33:11;;;;;;;1.63;1.55;;;;;;;3.25;39.77;101248.25;6306585;22;19991;-76
2022/03/19 07:35:38;;;;;;;1.98;1.88;;;;;;;3.30;40.73;101230.03;6306018;22;19991;-76
2022/03/19 07:38:05;;;;;;;1.83;1.75;;;;;;;3.25;41.44;101245.59;6305839;22;20400;-76
2022/03/19 07:43:15;;;;;;;0.00;0.00;;;;;;;3.48;41.54;101226.31;6305759;22;20072;-75
2022/03/19 07:45:42;;;;;;;0.82;0.82;;;;;;;3.51;39.34;101247.09;6306106;22;20409;-75
2022/03/19 07:48:08;;;;;;;0.20;0.20;;;;;;;3.57;39.84;101224.44;6306638;22;20003;-75
2022/03/19 07:50:34;;;;;;;7.22;5.68;;;;;;;3.64;39.70;101236.78;6306297;22;19995;-75
2022/03/19 07:53:00;;;;;;;0.00;0.00;;;;;;;3.62;37.56;101236.13;6306221;22;20416;-76
2022/03/19 07:55:25;;;;;;;0.30;0.30;;;;;;;3.60;37.29;101230.19;6306111;22;20075;-76
2022/03/19 07:57:51;;;;;;;0.45;0.45;;;;;;;3.65;38.74;101222.53;6303993;22;20007;-75
2022/03/19 08:00:17;;;;;;;0.00;0.00;;;;;;;3.69;37.89;101231.75;6306404;22;20328;-75
2022/03/19 08:02:43;;;;;;;0.10;0.10;;;;;;;3.73;37.91;101242.00;6306185;22;19999;-75
2022/03/19 08:05:10;;;;;;;0.13;0.13;;;;;;;3.74;37.55;101222.50;6305785;22;20001;-75
2022/03/19 08:07:37;;;;;;;0.10;0.10;;;;;;;3.85;37.59;101222.88;6306289;22;20002;-77
2022/03/19 08:10:04;;;;;;;0.05;0.05;;;;;;;3.93;36.95;101221.16;6278371;22;20582;-77
2022/03/19 08:12:30;;;;;;;0.30;0.30;;;;;;;3.91;35.94;101212.59;6278940;22;20011;-77
2022/03/19 08:14:56;;;;;;;0.20;0.20;;;;;;;3.74;35.56;101238.38;6279025;22;19999;-78
2022/03/19 08:17:22;;;;;;;0.28;0.28;;;;;;;3.74;36.43;101223.31;6277272;22;20003;-77
2022/03/19 08:19:48;;;;;;;0.10;0.10;;;;;;;3.71;35.89;101230.78;6305048;22;20068;-77
2022/03/19 08:22:14;;;;;;;3.60;1.20;;;;;;;3.71;35.61;101223.69;6311301;22;19995;-79
2022/03/19 08:24:46;;;;;;;0.73;0.73;;;;;;;3.65;35.49;101238.41;6307342;22;20007;-79
2022/03/19 08:27:11;;;;;;;0.80;0.80;;;;;;;3.51;35.97;101223.31;6283743;22;19999;-79
2022/03/19 08:29:37;;;;;;;0.68;0.68;;;;;;;3.37;36.17;101232.81;6288562;22;19996;-80
2022/03/19 08:32:04;;;;;;;0.03;0.03;;;;;;;3.33;36.77;101221.75;6306292;22;19999;-80
2022/03/19 08:35:25;;;;;;;1.65;1.55;;;;;;;3.38;37.46;101230.97;6282406;22;20332;-80
2022/03/19 08:40:15;;;;;;;1.63;0.73;;;;;;;3.42;36.07;101205.81;6232015;22;20016;-80
2022/03/19 08:41:11;;;;;;;0.22;0.22;;;;;;;3.43;36.20;101226.84;6275364;22;20063;-80
2022/03/19 08:54:03;;;;;;;0.05;0.05;;;;;;;3.38;37.32;101217.75;6304872;22;20037;-80
2022/03/19 08:59:25;;;;;;;0.00;0.00;;;;;;;3.36;37.10;101216.09;6287431;22;20029;-81
2022/03/19 09:02:22;;;;;;;0.08;0.08;;;;;;;3.43;36.80;101205.66;6281350;22;20015;-80
2022/03/19 09:05:06;;;;;;;1.27;0.98;;;;;;;3.43;36.99;101221.53;6309959;22;19995;-81
2022/03/19 09:07:32;;;;;;;0.00;0.00;;;;;;;3.43;37.07;101208.31;6305822;22;19999;-78
2022/03/19 09:09:57;;;;;;;0.30;0.30;;;;;;;3.34;36.13;101238.44;6277943;22;20002;-79
2022/03/19 09:12:26;;;;;;;0.45;0.45;;;;;;;3.41;36.70;101220.88;6278894;22;20009;-78
2022/03/19 09:14:53;;;;;;;0.00;0.00;;;;;;;3.41;36.26;101210.31;6279576;22;20494;-78
2022/03/19 09:17:30;;;;;;;0.03;0.03;;;;;;;3.38;36.08;101207.19;6280867;22;20484;-82
2022/03/19 09:19:56;;;;;;;0.28;0.28;;;;;;;3.57;36.93;101212.00;6305458;22;20086;-80
2022/03/19 09:22:21;;;;;;;0.68;0.17;;;;;;;3.62;36.19;101204.38;6279335;22;19991;-79
2022/03/19 09:24:48;;;;;;;0.00;0.00;;;;;;;3.67;35.07;101214.41;6278440;22;19991;-79
2022/03/19 09:27:14;;;;;;;0.85;0.85;;;;;;;3.68;35.04;101198.34;6280389;22;20128;-78
2022/03/19 09:29:42;;;;;;;0.10;0.10;;;;;;;3.85;36.08;101192.94;6307144;22;19995;-77
2022/03/19 09:32:09;;;;;;;0.00;0.00;;;;;;;3.93;35.91;101197.34;6279037;22;19999;-75
2022/03/19 09:34:35;;;;;;;0.28;0.28;;;;;;;4.09;35.66;101191.91;6279265;22;20003;-78
2022/03/19 09:37:01;;;;;;;0.25;0.25;;;;;;;4.14;34.67;101188.72;6279891;22;20014;-80
2022/03/19 09:39:27;;;;;;;0.10;0.10;;;;;;;4.25;35.68;101195.41;6310558;22;20038;-78
2022/03/19 09:41:56;;;;;;;0.00;0.00;;;;;;;4.39;35.16;101197.22;6291293;22;20455;-81
2022/03/19 09:44:26;;;;;;;0.00;0.00;;;;;;;4.42;34.31;101188.94;6311140;22;20005;-82
2022/03/19 09:46:53;;;;;;;0.10;0.10;;;;;;;4.45;34.26;101195.69;6312613;22;20432;-80
2022/03/19 09:49:28;;;;;;;0.30;0.30;;;;;;;4.38;33.60;101187.66;6287311;22;20065;-81
2022/03/19 09:52:37;;;;;;;0.10;0.10;;;;;;;4.35;32.56;101181.91;6313334;22;20002;-81
2022/03/19 09:55:27;;;;;;;0.47;0.47;;;;;;;4.26;32.79;101174.03;6285263;22;20031;-79
2022/03/19 09:57:55;;;;;;;0.10;0.10;;;;;;;4.32;32.92;101191.84;6277681;22;20002;-80
2022/03/19 10:00:26;;;;;;;0.20;0.20;;;;;;;4.36;33.11;101179.06;6279802;22;19991;-80
2022/03/19 10:03:00;;;;;;;0.90;0.90;;;;;;;4.40;32.99;101183.00;6278282;22;20021;-81
2022/03/19 10:11:15;;;;;;;1.00;1.00;;;;;;;4.37;34.12;101166.63;6309944;22;20006;-79
2022/03/19 10:13:46;;;;;;;0.60;0.60;;;;;;;4.42;32.65;101169.56;6283672;22;19995;-80
2022/03/19 10:16:38;;;;;;;0.00;0.00;;;;;;;4.61;33.40;101170.84;6285727;22;19995;-80
2022/03/19 10:19:39;;;;;;;7.22;1.00;;;;;;;4.70;33.46;101164.44;6284309;22;19998;-80
2022/03/19 10:25:39;;;;;;;0.88;0.88;;;;;;;4.74;32.55;101165.72;6266147;22;20078;-79
2022/03/19 10:28:08;;;;;;;0.20;0.20;;;;;;;4.76;32.84;101149.59;6278456;22;19999;-79
2022/03/19 10:30:43;;;;;;;0.00;0.00;;;;;;;4.77;32.29;101151.25;6279244;22;20070;-79
2022/03/19 10:33:10;;;;;;;0.20;0.20;;;;;;;4.83;33.01;101155.00;6277323;22;20005;-78
2022/03/19 10:35:44;;;;;;;0.30;0.30;;;;;;;4.79;32.65;101147.41;6277834;22;19999;-79
2022/03/19 10:38:22;;;;;;;10.68;2.55;;;;;;;4.83;32.99;101147.88;6281671;22;19995;-78
2022/03/19 10:40:49;;;;;;;0.75;0.75;;;;;;;4.82;32.24;101154.16;6279118;22;20000;-77
2022/03/19 10:43:22;;;;;;;0.00;0.00;;;;;;;4.87;33.49;101157.09;6308977;22;20056;-77
2022/03/19 10:45:56;;;;;;;0.50;0.50;;;;;;;4.95;33.10;101149.03;6286745;22;20055;-80
2022/03/19 10:48:23;;;;;;;0.13;0.13;;;;;;;4.99;33.77;101148.66;6278145;22;20493;-78
2022/03/19 10:50:50;;;;;;;0.17;0.17;;;;;;;5.06;32.19;101144.25;6277173;22;20321;-78
2022/03/19 10:53:17;;;;;;;0.00;0.00;;;;;;;5.01;31.29;101136.84;6277574;22;20003;-77
2022/03/19 10:55:43;;;;;;;0.00;0.00;;;;;;;5.03;31.46;101132.19;6279340;22;20010;-80
2022/03/19 10:58:10;;;;;;;0.08;0.08;;;;;;;5.01;31.69;101139.50;6279461;22;20011;-79
2022/03/19 11:00:36;;;;;;;0.00;0.00;;;;;;;4.96;32.61;101134.75;6280949;22;20029;-81
2022/03/19 11:03:10;;;;;;;0.00;0.00;;;;;;;4.99;31.04;101124.78;6279418;22;20074;-79
2022/03/19 11:05:38;;;;;;;0.00;0.00;;;;;;;4.94;32.11;101123.53;6278469;22;20006;-80
2022/03/19 11:08:07;;;;;;;0.00;0.00;;;;;;;4.88;31.46;101111.03;6279289;22;20112;-78
2022/03/19 11:10:34;;;;;;;0.00;0.00;;;;;;;4.89;30.99;101120.59;6280195;22;20003;-80
2022/03/19 11:13:01;;;;;;;0.08;0.08;;;;;;;4.90;31.18;101116.13;6279817;22;19995;-80
2022/03/19 11:15:32;;;;;;;0.20;0.20;;;;;;;4.83;31.06;101115.25;6279787;22;19999;-80
2022/03/19 11:18:03;;;;;;;0.73;0.73;;;;;;;4.84;31.46;101111.59;6279189;22;20010;-80
2022/03/19 11:20:30;;;;;;;0.00;0.00;;;;;;;4.65;31.32;101113.78;6279631;22;20074;-79
2022/03/19 11:22:59;;;;;;;0.00;0.00;;;;;;;4.63;32.04;101107.88;6280307;22;19995;-80
2022/03/19 11:26:17;;;;;;;0.25;0.25;;;;;;;4.75;32.33;101100.28;6289603;22;20003;-82
2022/03/19 11:29:16;;;;;;;0.00;0.00;;;;;;;4.84;33.78;101088.53;6295028;22;20037;-83
2022/03/19 11:31:43;;;;;;;;;;;;;;;4.96;32.82;101094.97;6258239;22;20387;-80
2022/03/19 11:37:23;;;;;;;0.10;0.10;;;;;;;4.82;31.56;101079.94;6217900;23;20179;-79
2022/03/19 11:40:28;;;;;;;0.00;0.00;;;;;;;4.94;32.41;101098.84;6263021;22;20018;-79
2022/03/19 11:42:55;;;;;;;0.98;0.98;;;;;;;4.83;31.91;101080.78;6259285;22;20324;-78
2022/03/19 11:45:22;;;;;;;0.00;0.00;;;;;;;4.79;31.41;101086.44;6278051;22;19991;-79
2022/03/19 11:47:47;;;;;;;0.15;0.15;;;;;;;4.73;30.82;101108.41;6276741;22;20003;-79
2022/03/19 11:50:24;;;;;;;0.00;0.00;;;;;;;4.70;30.74;101071.69;6278668;22;20121;-79
2022/03/19 11:55:34;;;;;;;0.00;0.00;;;;;;;4.72;31.35;101076.78;6276833;22;20076;-79
2022/03/19 11:58:02;;;;;;;0.17;0.17;;;;;;;4.78;32.26;101062.78;6278908;22;19999;-80
2022/03/19 12:08:05;;;;;;;0.00;0.00;;;;;;;4.87;31.81;101080.22;6312141;22;20014;-79
2022/03/19 12:10:38;;;;;;;0.32;0.32;;;;;;;4.92;32.60;101067.22;6279266;22;19998;-79
2022/03/19 12:13:39;;;;;;;0.00;0.00;;;;;;;4.91;31.46;101067.41;6278671;22;20057;-75
2022/03/19 12:16:08;;;;;;;0.40;0.40;;;;;;;4.86;32.83;101054.72;6254963;22;19996;-79
2022/03/19 12:18:53;;;;;;;0.00;0.00;;;;;;;4.75;31.94;101056.03;6186431;23;20001;-80
2022/03/19 12:21:42;;;;;;;0.15;0.15;;;;;;;4.77;32.73;101067.28;6184234;23;20064;-80
2022/03/19 12:24:49;;;;;;;0.00;0.00;;;;;;;4.78;31.97;101057.47;6180811;23;20358;-80
2022/03/19 12:27:18;;;;;;;0.00;0.00;;;;;;;4.84;32.76;101056.72;6156945;23;20597;-80
2022/03/19 12:29:44;;;;;;;0.00;0.00;;;;;;;4.91;33.13;101052.31;6157619;23;20001;-79
2022/03/19 12:32:09;;;;;;;0.08;0.08;;;;;;;4.92;32.24;101063.72;6157306;23;20009;-80
2022/03/19 12:34:35;;;;;;;0.80;0.80;;;;;;;4.88;32.03;101049.22;6163044;23;20001;-80
2022/03/19 12:37:03;;;;;;;0.00;0.00;;;;;;;4.96;31.82;101051.75;6155204;23;20013;-76
2022/03/19 12:39:29;;;;;;;0.00;0.00;;;;;;;4.91;32.00;101046.19;6181056;23;20024;-76
2022/03/19 12:41:54;;;;;;;0.10;0.10;;;;;;;4.83;31.56;101056.91;6180446;23;20453;-77
2022/03/19 12:44:25;;;;;;;0.00;0.00;;;;;;;4.73;31.38;101065.97;6156172;23;20084;-77
2022/03/19 12:47:07;;;;;;;0.43;0.43;;;;;;;4.61;31.23;101036.53;6181104;23;20028;-77
2022/03/19 12:49:33;;;;;;;0.20;0.20;;;;;;;4.60;31.85;101040.16;6210920;22;20009;-77
2022/03/19 12:52:09;;;;;;;0.52;0.52;;;;;;;4.76;32.08;101032.97;6280321;22;20487;-78
2022/03/19 12:54:34;;;;;;;0.10;0.10;;;;;;;4.84;32.30;101053.25;6306800;22;20006;-78
2022/03/19 12:57:12;;;;;;;0.10;0.10;;;;;;;4.88;32.78;101041.25;6305290;22;20007;-77
2022/03/19 12:59:47;;;;;;;0.10;0.10;;;;;;;4.94;31.74;101054.59;6306252;22;20007;-78
2022/03/19 13:02:13;;;;;;;0.03;0.03;;;;;;;5.01;32.16;101056.50;6278610;22;20025;-76
2022/03/19 13:04:43;;;;;;;0.10;0.10;;;;;;;5.08;31.69;101039.63;6279034;22;20417;-76
2022/03/19 13:07:08;;;;;;;0.00;0.00;;;;;;;5.22;32.66;101045.84;6277826;22;20003;-77
2022/03/19 13:09:36;;;;;;;0.00;0.00;;;;;;;5.16;30.78;101045.81;6304301;22;20371;-77
2022/03/19 13:12:14;;;;;;;0.22;0.22;;;;;;;5.04;31.92;101040.19;6278281;22;20006;-79
2022/03/19 13:14:50;;;;;;;0.10;0.10;;;;;;;5.14;32.51;101024.78;6306022;22;20013;-78
2022/03/19 13:17:17;;;;;;;0.00;0.00;;;;;;;5.09;31.17;101040.44;6305994;22;19995;-77
2022/03/19 13:19:43;;;;;;;0.35;0.35;;;;;;;5.17;31.85;101027.03;6278057;22;20019;-77
2022/03/19 13:22:10;;;;;;;0.00;0.00;;;;;;;5.23;32.26;101044.84;6304862;22;20332;-77
2022/03/19 13:24:37;;;;;;;0.10;0.10;;;;;;;5.07;32.04;101027.38;6305922;22;20019;-79
2022/03/19 13:27:04;;;;;;;0.20;0.20;;;;;;;5.00;32.51;101023.03;6306447;22;19995;-78
2022/03/19 13:29:35;;;;;;;0.00;0.00;;;;;;;5.04;32.21;101024.28;6279403;22;20006;-78
2022/03/19 13:32:03;;;;;;;0.10;0.10;;;;;;;5.04;32.14;101048.13;6305871;22;19995;-78
2022/03/19 13:34:28;;;;;;;0.00;0.00;;;;;;;5.01;31.54;101062.59;6305817;22;20417;-77
2022/03/19 13:36:55;;;;;;;0.35;0.35;;;;;;;4.83;32.04;101036.50;6277940;22;20140;-78
2022/03/19 13:39:26;;;;;;;0.00;0.00;;;;;;;4.95;33.00;101037.66;6278600;22;20009;-80
2022/03/19 13:42:34;;;;;;;0.57;0.57;;;;;;;5.02;33.02;101044.88;6279420;22;20007;-82
2022/03/19 13:45:17;;;;;;;0.00;0.00;;;;;;;5.05;34.00;101044.47;6272237;22;20003;-81
2022/03/19 13:47:49;;;;;;;0.20;0.20;;;;;;;5.08;33.16;101044.13;6277757;22;20001;-79
2022/03/19 13:50:17;;;;;;;0.20;0.20;;;;;;;5.06;32.21;101046.13;6276735;22;19999;-77
2022/03/19 13:52:44;;;;;;;0.23;0.23;;;;;;;5.11;33.02;101046.38;6305458;22;20007;-78
2022/03/19 13:55:34;;;;;;;0.20;0.20;;;;;;;5.16;33.00;101048.47;6277985;22;20516;-81
2022/03/19 13:58:06;;;;;;;0.20;0.20;;;;;;;5.11;33.21;101047.22;6277636;22;20444;-78
2022/03/19 14:00:37;;;;;;;0.05;0.05;;;;;;;5.10;32.90;101047.38;6304027;22;19997;-77
2022/03/19 14:03:40;;;;;;;0.10;0.10;;;;;;;5.10;34.16;101044.72;6304012;22;19995;-78
2022/03/19 14:06:06;;;;;;;0.63;0.63;;;;;;;5.00;32.55;101038.94;6257240;22;20003;-80
2022/03/19 14:08:32;;;;;;;0.22;0.22;;;;;;;5.01;32.99;101051.19;6290380;22;20548;-81
2022/03/19 14:10:57;;;;;;;0.40;0.40;;;;;;;4.84;32.88;101046.13;6280051;22;20063;-79
2022/03/19 14:13:35;;;;;;;0.00;0.00;;;;;;;4.82;32.94;101040.16;6308153;22;20064;-77
2022/03/19 14:16:07;;;;;;;0.85;0.85;;;;;;;4.75;33.50;101045.41;6305599;22;20082;-78
2022/03/19 14:18:33;;;;;;;1.23;1.13;;;;;;;4.68;33.08;101056.97;6305519;22;19999;-78
2022/03/19 14:21:04;;;;;;;0.00;0.00;;;;;;;4.57;34.01;101055.63;6305207;22;20022;-77
2022/03/19 14:23:32;;;;;;;0.50;0.50;;;;;;;4.57;35.08;101051.13;6305170;22;20462;-78
2022/03/19 14:26:01;;;;;;;0.52;0.52;;;;;;;4.51;35.08;101048.41;6289527;22;20013;-81
2022/03/19 14:28:30;;;;;;;0.47;0.47;;;;;;;4.41;35.59;101038.13;6305810;22;20433;-76
2022/03/19 14:30:56;;;;;;;0.05;0.05;;;;;;;4.41;35.62;101060.13;6303287;22;20055;-77
2022/03/19 14:33:25;;;;;;;0.35;0.35;;;;;;;4.36;35.83;101056.38;6303818;22;20010;-78
2022/03/19 14:35:59;;;;;;;0.47;0.47;;;;;;;4.38;35.38;101049.91;6276520;22;20559;-77
2022/03/19 14:38:37;;;;;;;1.88;1.35;;;;;;;4.32;35.94;101054.09;6304682;22;20003;-77
2022/03/19 14:41:07;;;;;;;0.43;0.43;;;;;;;4.35;36.11;101052.09;6276498;22;20004;-78
2022/03/19 14:43:33;;;;;;;0.00;0.00;;;;;;;4.45;36.54;101052.63;6304241;22;20056;-77
2022/03/19 14:46:00;;;;;;;0.57;0.57;;;;;;;4.47;36.35;101037.38;6304009;22;20003;-78
2022/03/19 14:48:28;;;;;;;0.25;0.25;;;;;;;4.45;35.24;101032.22;6276577;22;20023;-76
2022/03/19 14:50:55;;;;;;;0.00;0.00;;;;;;;4.43;34.50;101036.91;6305057;22;20408;-78
2022/03/19 14:53:21;;;;;;;0.00;0.00;;;;;;;4.39;34.78;101053.38;6305461;22;19999;-79
2022/03/19 14:55:51;;;;;;;0.22;0.22;;;;;;;4.27;36.07;101037.97;6276585;22;19999;-76
2022/03/19 14:58:18;;;;;;;0.10;0.10;;;;;;;4.20;36.80;101041.50;6303745;22;19999;-75
2022/03/19 15:03:15;;;;;;;0.32;0.32;;;;;;;3.96;37.26;101067.28;6183974;23;20020;-81
2022/03/19 15:05:42;;;;;;;0.57;0.57;;;;;;;3.85;37.24;101061.41;6282308;22;20073;-76
2022/03/19 15:08:08;;;;;;;0.00;0.00;;;;;;;3.89;37.15;101048.63;6254367;22;20001;-77
2022/03/19 15:10:34;;;;;;;0.00;0.00;;;;;;;3.90;37.64;101052.94;6147879;23;20005;-77
2022/03/19 15:13:00;;;;;;;0.13;0.13;;;;;;;3.93;37.50;101057.03;6148515;23;20342;-76
2022/03/19 15:15:26;;;;;;;0.00;0.00;;;;;;;3.83;37.91;101112.91;6148116;23;19998;-74
2022/03/19 15:17:51;;;;;;;0.52;0.52;;;;;;;3.69;39.16;101073.00;6147458;23;20055;-77
2022/03/19 15:20:17;;;;;;;0.25;0.25;;;;;;;3.68;38.51;101068.69;6148115;23;20002;-77
2022/03/19 15:22:43;;;;;;;0.00;0.00;;;;;;;3.67;38.03;101072.38;6147939;23;20093;-78
2022/03/19 15:25:11;;;;;;;2.00;1.67;;;;;;;3.68;37.85;101067.88;6147868;23;20002;-75
2022/03/19 15:27:38;;;;;;;0.00;0.00;;;;;;;3.72;37.28;101055.94;6150761;23;20062;-79
2022/03/19 15:39:02;;;;;;;0.10;0.10;;;;;;;3.61;36.95;101096.88;6287214;22;21044;31